Time;durP1;ratioP1;P1;durP2;ratioP2;P2;SDS_P1;SDS_P2;PMS_P1;PMS_P2;Temp;Humidity;BMP_temperature;BMP_pressure;BME280_temperature;BME280_humidity;BME280_pressure;Samples;Min_cycle;Max_cycle;Signal;HPM_P1;HPM_P2
2023/01/27 00:01:25;;;;;;;15.18;8.85;;;;;;;;;;5115879;28;20193;-59
2023/01/27 00:03:53;;;;;;;19.75;10.23;;;;;;;;;;5114691;28;20594;-58
2023/01/27 00:06:20;;;;;;;13.35;9.00;;;;;;;;;;5115713;28;20288;-58
2023/01/27 00:08:47;;;;;;;16.38;9.35;;;;;;;;;;5115572;28;20193;-57
2023/01/27 00:13:58;;;;;;;15.10;9.68;;;;;;;;;;5115655;28;20729;-59
2023/01/27 00:16:26;;;;;;;14.65;10.00;;;;;;;;;;5115439;28;20652;-57
2023/01/27 00:18:54;;;;;;;17.15;9.68;;;;;;;;;;5115427;28;20189;-59
2023/01/27 00:26:50;;;;;;;16.25;8.88;;;;;;;;;;5115589;28;20196;-58
2023/01/27 00:29:17;;;;;;;18.42;9.50;;;;;;;;;;5115416;28;20452;-58
2023/01/27 00:34:30;;;;;;;18.25;9.60;;;;;;;;;;5115369;28;20192;-59
2023/01/27 00:36:57;;;;;;;18.35;10.43;;;;;;;;;;5115252;28;20221;-57
2023/01/27 00:39:24;;;;;;;15.77;9.75;;;;;;;;;;5115112;28;20191;-58
2023/01/27 00:41:51;;;;;;;18.63;10.63;;;;;;;;;;5115016;28;20188;-58
2023/01/27 00:44:18;;;;;;;17.77;9.48;;;;;;;;;;5114658;28;20197;-58
2023/01/27 00:46:45;;;;;;;20.88;11.10;;;;;;;;;;5115062;28;20606;-59
2023/01/27 00:49:12;;;;;;;19.13;11.25;;;;;;;;;;5114649;28;20637;-59
2023/01/27 00:51:40;;;;;;;19.10;10.20;;;;;;;;;;5114850;28;20185;-58
2023/01/27 00:54:07;;;;;;;17.77;10.07;;;;;;;;;;5114793;28;20618;-58
2023/01/27 00:56:35;;;;;;;20.27;10.45;;;;;;;;;;5114664;28;20555;-59
2023/01/27 00:59:01;;;;;;;19.30;10.70;;;;;;;;;;5114576;28;20448;-58
2023/01/27 01:01:29;;;;;;;19.08;11.30;;;;;;;;;;5114749;28;20189;-57
2023/01/27 01:03:57;;;;;;;20.33;11.27;;;;;;;;;;5114855;28;20290;-58
2023/01/27 01:06:24;;;;;;;20.23;11.32;;;;;;;;;;5114527;28;20194;-58
2023/01/27 01:08:53;;;;;;;22.73;11.65;;;;;;;;;;5114498;28;20190;-58
2023/01/27 01:11:21;;;;;;;25.63;11.50;;;;;;;;;;5114143;28;20687;-58
2023/01/27 01:13:48;;;;;;;22.98;11.85;;;;;;;;;;5114562;28;20189;-59
2023/01/27 01:16:16;;;;;;;19.73;11.07;;;;;;;;;;5114222;28;20198;-59
2023/01/27 01:18:43;;;;;;;21.25;11.27;;;;;;;;;;5114390;28;20696;-58
2023/01/27 01:21:10;;;;;;;28.25;12.18;;;;;;;;;;5114314;28;20559;-59
2023/01/27 01:23:39;;;;;;;22.15;11.05;;;;;;;;;;5114232;28;20191;-58
2023/01/27 01:26:08;;;;;;;21.13;11.63;;;;;;;;;;5114179;28;20196;-58
2023/01/27 01:28:34;;;;;;;27.33;12.18;;;;;;;;;;5114247;28;20188;-59
2023/01/27 01:31:04;;;;;;;23.75;11.55;;;;;;;;;;5114106;28;20221;-58
2023/01/27 01:33:31;;;;;;;24.08;11.93;;;;;;;;;;5114159;28;20189;-59
2023/01/27 01:36:03;;;;;;;22.33;10.02;;;;;;;;;;5114300;28;20188;-58
2023/01/27 01:38:30;;;;;;;23.92;11.18;;;;;;;;;;5113831;28;20199;-59
2023/01/27 01:40:57;;;;;;;24.38;11.77;;;;;;;;;;5113998;28;20647;-59
2023/01/27 01:43:26;;;;;;;22.40;12.50;;;;;;;;;;5114090;28;20279;-58
2023/01/27 01:45:54;;;;;;;27.40;11.45;;;;;;;;;;5113948;28;20220;-58
2023/01/27 01:48:36;;;;;;;20.95;11.40;;;;;;;;;;5114283;28;20718;-59
2023/01/27 01:51:07;;;;;;;24.20;13.20;;;;;;;;;;5111091;28;20217;-59
2023/01/27 01:53:36;;;;;;;22.40;13.13;;;;;;;;;;5113853;28;20216;-59
2023/01/27 01:56:06;;;;;;;21.40;11.38;;;;;;;;;;5113771;28;20220;-59
2023/01/27 01:58:35;;;;;;;21.60;11.35;;;;;;;;;;5113578;28;20640;-58
2023/01/27 02:01:03;;;;;;;20.50;11.90;;;;;;;;;;5113527;28;20189;-58
2023/01/27 02:03:30;;;;;;;24.15;11.68;;;;;;;;;;5113475;28;20197;-59
2023/01/27 02:05:57;;;;;;;19.52;10.38;;;;;;;;;;5113703;28;20195;-59
2023/01/27 02:08:27;;;;;;;19.85;11.00;;;;;;;;;;5113571;28;20184;-58
2023/01/27 02:10:54;;;;;;;19.95;10.23;;;;;;;;;;5113539;28;20216;-58
2023/01/27 02:13:21;;;;;;;22.35;11.10;;;;;;;;;;5113414;28;20216;-58
2023/01/27 02:15:51;;;;;;;22.50;11.02;;;;;;;;;;5113348;28;20196;-59
2023/01/27 02:18:17;;;;;;;24.00;11.82;;;;;;;;;;5113345;28;20550;-58
2023/01/27 02:20:46;;;;;;;23.50;11.48;;;;;;;;;;5113244;28;20668;-58
2023/01/27 02:23:18;;;;;;;24.90;9.93;;;;;;;;;;5113362;28;20279;-59
2023/01/27 02:25:51;;;;;;;26.67;11.30;;;;;;;;;;5113384;28;20204;-58
2023/01/27 02:28:18;;;;;;;19.50;10.20;;;;;;;;;;5116169;28;20193;-59
2023/01/27 02:30:45;;;;;;;21.73;10.80;;;;;;;;;;5117357;28;20220;-58
2023/01/27 02:33:12;;;;;;;24.63;13.10;;;;;;;;;;5117543;28;20656;-58
2023/01/27 02:35:41;;;;;;;19.98;11.75;;;;;;;;;;5117558;28;20194;-58
2023/01/27 02:38:09;;;;;;;26.40;9.93;;;;;;;;;;5117373;28;20664;-59
2023/01/27 02:40:37;;;;;;;18.30;10.32;;;;;;;;;;5117382;28;20197;-58
2023/01/27 02:43:05;;;;;;;22.85;11.45;;;;;;;;;;5117186;28;20186;-56
2023/01/27 02:45:32;;;;;;;24.95;11.35;;;;;;;;;;5117104;28;20213;-58
2023/01/27 02:47:59;;;;;;;21.45;11.00;;;;;;;;;;5117295;28;20185;-59
2023/01/27 02:50:26;;;;;;;20.13;10.13;;;;;;;;;;5117108;28;20213;-59
2023/01/27 02:52:53;;;;;;;20.67;10.07;;;;;;;;;;5117115;28;20200;-59
2023/01/27 02:55:20;;;;;;;24.15;11.25;;;;;;;;;;5117055;28;20188;-58
2023/01/27 02:57:47;;;;;;;18.25;10.65;;;;;;;;;;5116946;28;20186;-59
2023/01/27 03:00:15;;;;;;;14.50;10.20;;;;;;;;;;5117109;28;20197;-59
2023/01/27 03:02:42;;;;;;;23.77;11.90;;;;;;;;;;5117017;28;20196;-58
2023/01/27 03:05:09;;;;;;;22.10;12.32;;;;;;;;;;5117218;28;20550;-58
2023/01/27 03:07:36;;;;;;;22.27;12.13;;;;;;;;;;5116804;28;20194;-58
2023/01/27 03:10:03;;;;;;;17.23;9.65;;;;;;;;;;5116661;28;20194;-59
2023/01/27 03:12:30;;;;;;;29.25;12.45;;;;;;;;;;5116788;28;20197;-58
2023/01/27 03:20:28;;;;;;;20.40;9.23;;;;;;;;;;5116692;28;20550;-58
2023/01/27 03:22:55;;;;;;;20.65;10.15;;;;;;;;;;5116502;28;20287;-58
2023/01/27 03:25:22;;;;;;;16.45;9.90;;;;;;;;;;5116548;28;20239;-58
2023/01/27 03:27:49;;;;;;;18.25;9.88;;;;;;;;;;5116502;28;20319;-59
2023/01/27 03:30:16;;;;;;;22.52;10.23;;;;;;;;;;5116396;28;20642;-59
2023/01/27 03:32:46;;;;;;;21.13;11.02;;;;;;;;;;5116402;28;20211;-59
2023/01/27 03:35:13;;;;;;;19.30;10.82;;;;;;;;;;5116148;28;20192;-58
2023/01/27 03:48:41;;;;;;;24.17;10.55;;;;;;;;;;5116095;28;20235;-59
2023/01/27 03:51:09;;;;;;;17.95;10.13;;;;;;;;;;5115942;28;20217;-58
2023/01/27 03:53:36;;;;;;;22.15;11.23;;;;;;;;;;5115896;28;20214;-59
2023/01/27 03:56:04;;;;;;;19.35;10.20;;;;;;;;;;5115818;28;20189;-58
2023/01/27 03:58:32;;;;;;;24.48;10.20;;;;;;;;;;5116264;28;20209;-58
2023/01/27 04:01:00;;;;;;;21.58;10.00;;;;;;;;;;5115873;28;20190;-57
2023/01/27 04:09:00;;;;;;;18.45;10.02;;;;;;;;;;5115881;28;20278;-59
2023/01/27 04:14:13;;;;;;;18.63;9.68;;;;;;;;;;5115552;28;20293;-59
2023/01/27 04:16:40;;;;;;;21.45;10.40;;;;;;;;;;5115435;28;20233;-58
2023/01/27 04:19:08;;;;;;;21.40;10.55;;;;;;;;;;5115366;28;20185;-58
2023/01/27 04:21:36;;;;;;;27.73;11.80;;;;;;;;;;5115568;28;20196;-58
2023/01/27 04:24:03;;;;;;;26.05;10.73;;;;;;;;;;5115384;28;20219;-57
2023/01/27 04:26:33;;;;;;;16.38;8.48;;;;;;;;;;5115344;28;20289;-58
2023/01/27 04:29:00;;;;;;;21.65;9.60;;;;;;;;;;5115361;28;20190;-59
2023/01/27 04:31:27;;;;;;;24.40;11.98;;;;;;;;;;5115041;28;20210;-58
2023/01/27 04:33:54;;;;;;;17.95;9.10;;;;;;;;;;5115133;28;20228;-57
2023/01/27 04:36:21;;;;;;;20.58;9.88;;;;;;;;;;5115242;28;20548;-58
2023/01/27 04:38:49;;;;;;;22.77;9.50;;;;;;;;;;5115140;28;20189;-58
2023/01/27 04:41:16;;;;;;;17.50;9.95;;;;;;;;;;5114929;28;20280;-58
2023/01/27 04:43:43;;;;;;;23.83;10.27;;;;;;;;;;5115041;28;20192;-58
2023/01/27 04:46:10;;;;;;;18.98;10.25;;;;;;;;;;5115048;28;20324;-57
2023/01/27 04:48:37;;;;;;;19.13;9.60;;;;;;;;;;5115037;28;20621;-59
2023/01/27 04:51:04;;;;;;;27.38;10.52;;;;;;;;;;5114345;28;20249;-58
2023/01/27 04:53:31;;;;;;;19.23;9.50;;;;;;;;;;5114714;28;20548;-57
2023/01/27 04:56:03;;;;;;;21.02;10.70;;;;;;;;;;5114773;28;20204;-58
2023/01/27 04:58:30;;;;;;;18.67;9.77;;;;;;;;;;5114652;28;20194;-57
2023/01/27 05:00:57;;;;;;;26.42;13.35;;;;;;;;;;5114972;28;20191;-53
2023/01/27 05:03:24;;;;;;;21.67;9.95;;;;;;;;;;5114653;28;20194;-58
2023/01/27 05:05:52;;;;;;;20.17;9.63;;;;;;;;;;5114681;28;20653;-58
2023/01/27 05:08:19;;;;;;;25.20;11.23;;;;;;;;;;5114657;28;20185;-57
2023/01/27 05:10:46;;;;;;;19.42;9.68;;;;;;;;;;5114274;28;20243;-57
2023/01/27 05:13:14;;;;;;;17.42;8.75;;;;;;;;;;5114234;28;20193;-58
2023/01/27 05:15:41;;;;;;;16.83;9.75;;;;;;;;;;5114428;28;20648;-58
2023/01/27 05:18:08;;;;;;;21.17;9.80;;;;;;;;;;5114315;28;20190;-58
2023/01/27 05:20:35;;;;;;;13.15;8.40;;;;;;;;;;5114256;28;20189;-58
2023/01/27 05:25:47;;;;;;;16.27;8.60;;;;;;;;;;5114373;28;20181;-56
2023/01/27 05:28:15;;;;;;;14.70;8.85;;;;;;;;;;5114115;28;20190;-57
2023/01/27 05:30:42;;;;;;;12.70;8.15;;;;;;;;;;5114020;28;20196;-57
2023/01/27 05:33:09;;;;;;;15.50;8.45;;;;;;;;;;5113909;28;20193;-57
2023/01/27 05:35:37;;;;;;;21.55;9.95;;;;;;;;;;5113853;28;20220;-53
2023/01/27 05:38:03;;;;;;;17.15;10.07;;;;;;;;;;5113953;28;20620;-57
2023/01/27 05:40:30;;;;;;;16.98;9.25;;;;;;;;;;5114035;28;20193;-52
2023/01/27 05:42:57;;;;;;;18.25;9.15;;;;;;;;;;5113929;28;20280;-55
2023/01/27 05:45:26;;;;;;;14.20;8.60;;;;;;;;;;5113691;28;20274;-57
2023/01/27 05:47:53;;;;;;;17.33;9.05;;;;;;;;;;5113617;28;20194;-56
2023/01/27 05:50:20;;;;;;;15.15;8.85;;;;;;;;;;5113577;28;20670;-55
2023/01/27 05:52:46;;;;;;;15.85;10.15;;;;;;;;;;5113366;28;20307;-57
2023/01/27 05:55:13;;;;;;;16.02;9.35;;;;;;;;;;5113671;28;20186;-57
2023/01/27 05:57:40;;;;;;;12.48;8.50;;;;;;;;;;5113521;28;20247;-55
2023/01/27 06:00:08;;;;;;;11.98;7.25;;;;;;;;;;5113395;28;20190;-58
2023/01/27 06:02:36;;;;;;;11.75;7.95;;;;;;;;;;5112739;28;20195;-56
2023/01/27 06:05:03;;;;;;;14.35;8.60;;;;;;;;;;5113115;28;20197;-56
2023/01/27 06:07:30;;;;;;;10.38;7.10;;;;;;;;;;5113173;28;20190;-56
2023/01/27 06:09:57;;;;;;;11.60;7.00;;;;;;;;;;5113449;28;20184;-56
2023/01/27 06:12:24;;;;;;;10.15;7.10;;;;;;;;;;5113309;28;20217;-56
2023/01/27 06:14:52;;;;;;;12.82;7.30;;;;;;;;;;5113321;28;20280;-58
2023/01/27 06:17:19;;;;;;;9.68;6.53;;;;;;;;;;5113422;28;20195;-58
2023/01/27 06:19:47;;;;;;;9.93;6.47;;;;;;;;;;5113186;28;20271;-57
2023/01/27 06:22:14;;;;;;;9.60;7.32;;;;;;;;;;5113060;28;20667;-54
2023/01/27 06:24:41;;;;;;;10.52;6.50;;;;;;;;;;5113215;28;20189;-56
2023/01/27 06:27:09;;;;;;;11.63;7.55;;;;;;;;;;5113423;28;20194;-57
2023/01/27 06:29:36;;;;;;;8.02;6.10;;;;;;;;;;5112983;28;20221;-56
2023/01/27 06:32:04;;;;;;;10.38;6.57;;;;;;;;;;5112970;28;20231;-50
2023/01/27 06:34:31;;;;;;;8.10;5.50;;;;;;;;;;5113001;28;20228;-57
2023/01/27 06:36:59;;;;;;;10.35;6.22;;;;;;;;;;5112900;28;20671;-55
2023/01/27 06:39:26;;;;;;;9.43;6.35;;;;;;;;;;5113031;28;20194;-56
2023/01/27 06:41:53;;;;;;;11.15;6.22;;;;;;;;;;5113061;28;20284;-56
2023/01/27 06:44:20;;;;;;;10.82;7.10;;;;;;;;;;5112660;28;20293;-56
2023/01/27 06:46:46;;;;;;;13.85;7.40;;;;;;;;;;5112735;28;20193;-56
2023/01/27 06:49:14;;;;;;;10.95;7.00;;;;;;;;;;5113086;28;20280;-56
2023/01/27 06:51:41;;;;;;;13.10;8.23;;;;;;;;;;5112851;28;20219;-56
2023/01/27 06:54:10;;;;;;;12.10;9.60;;;;;;;;;;5112954;28;20191;-51
2023/01/27 06:56:37;;;;;;;13.05;8.23;;;;;;;;;;5112941;28;20560;-54
2023/01/27 06:59:04;;;;;;;14.27;9.30;;;;;;;;;;5112833;28;20186;-56
2023/01/27 07:01:31;;;;;;;16.33;10.45;;;;;;;;;;5112584;28;20666;-55
2023/01/27 07:03:58;;;;;;;20.38;12.35;;;;;;;;;;5112739;28;20191;-53
2023/01/27 07:06:25;;;;;;;21.58;14.07;;;;;;;;;;5112865;28;20193;-53
2023/01/27 07:08:51;;;;;;;33.53;17.92;;;;;;;;;;5112753;28;20657;-55
2023/01/27 07:11:20;;;;;;;14.30;10.18;;;;;;;;;;5112791;28;20190;-57
2023/01/27 07:13:47;;;;;;;12.45;8.68;;;;;;;;;;5114356;28;20186;-55
2023/01/27 07:16:14;;;;;;;11.88;7.25;;;;;;;;;;5116729;28;20220;-55
2023/01/27 07:18:41;;;;;;;15.48;7.18;;;;;;;;;;5116607;28;20221;-55
2023/01/27 07:21:07;;;;;;;10.80;6.25;;;;;;;;;;5116574;28;20531;-56
2023/01/27 07:23:34;;;;;;;11.02;6.40;;;;;;;;;;5116407;28;20276;-57
2023/01/27 07:26:02;;;;;;;9.52;5.90;;;;;;;;;;5116381;28;20185;-56
2023/01/27 07:28:30;;;;;;;8.30;6.03;;;;;;;;;;5116142;28;20204;-55
2023/01/27 07:31:00;;;;;;;8.75;6.07;;;;;;;;;;5116286;28;20615;-59
2023/01/27 07:33:27;;;;;;;10.27;7.10;;;;;;;;;;5116019;28;20224;-53
2023/01/27 07:35:54;;;;;;;9.90;6.35;;;;;;;;;;5115914;28;20671;-59
2023/01/27 07:38:22;;;;;;;9.35;6.00;;;;;;;;;;5116049;28;20194;-55
2023/01/27 07:40:49;;;;;;;8.52;5.47;;;;;;;;;;5116186;28;20665;-55
2023/01/27 07:43:16;;;;;;;9.27;6.10;;;;;;;;;;5115635;28;20225;-53
2023/01/27 07:45:47;;;;;;;8.93;5.10;;;;;;;;;;5115579;28;20233;-54
2023/01/27 07:48:15;;;;;;;7.00;4.95;;;;;;;;;;5115910;28;20205;-55
2023/01/27 07:50:42;;;;;;;5.72;5.13;;;;;;;;;;5115749;28;20193;-51
2023/01/27 07:53:10;;;;;;;9.38;5.30;;;;;;;;;;5115508;28;20246;-55
2023/01/27 07:55:37;;;;;;;7.78;5.45;;;;;;;;;;5115599;28;20188;-54
2023/01/27 07:58:04;;;;;;;7.18;5.25;;;;;;;;;;5115876;28;20298;-55
2023/01/27 08:00:31;;;;;;;9.43;5.93;;;;;;;;;;5115613;28;20665;-57
2023/01/27 08:03:01;;;;;;;10.07;6.50;;;;;;;;;;5115692;28;20185;-56
2023/01/27 08:05:28;;;;;;;7.70;5.72;;;;;;;;;;5115533;28;20186;-54
2023/01/27 08:07:57;;;;;;;9.15;5.55;;;;;;;;;;5115639;28;20192;-61
2023/01/27 08:10:24;;;;;;;9.02;5.85;;;;;;;;;;5115460;28;20224;-54
2023/01/27 08:12:51;;;;;;;7.13;5.60;;;;;;;;;;5115574;28;20227;-55
2023/01/27 08:15:18;;;;;;;7.03;4.75;;;;;;;;;;5115257;28;20212;-56
2023/01/27 08:17:45;;;;;;;9.35;5.65;;;;;;;;;;5115348;28;20261;-58
2023/01/27 08:20:14;;;;;;;9.05;6.25;;;;;;;;;;5115890;28;20185;-52
2023/01/27 08:22:42;;;;;;;10.40;5.38;;;;;;;;;;5115014;28;20185;-58
2023/01/27 08:25:09;;;;;;;10.45;6.47;;;;;;;;;;5114370;28;20545;-62
2023/01/27 08:27:36;;;;;;;7.78;5.35;;;;;;;;;;5114794;28;20280;-58
2023/01/27 08:30:03;;;;;;;8.18;5.57;;;;;;;;;;5115094;28;20209;-61
2023/01/27 08:32:30;;;;;;;9.48;6.00;;;;;;;;;;5114873;28;20208;-61
2023/01/27 08:34:57;;;;;;;8.05;6.32;;;;;;;;;;5114826;28;20197;-61
2023/01/27 08:37:25;;;;;;;7.93;5.72;;;;;;;;;;5114821;28;20214;-61
2023/01/27 08:39:52;;;;;;;8.77;5.63;;;;;;;;;;5114982;28;20279;-62
2023/01/27 08:42:20;;;;;;;9.48;5.85;;;;;;;;;;5114889;28;20197;-60
2023/01/27 08:44:47;;;;;;;7.45;5.60;;;;;;;;;;5114501;28;20696;-61
2023/01/27 08:47:14;;;;;;;10.25;5.82;;;;;;;;;;5114738;28;20193;-59
2023/01/27 08:49:41;;;;;;;7.63;5.40;;;;;;;;;;5114667;28;20544;-58
2023/01/27 08:52:08;;;;;;;11.85;5.93;;;;;;;;;;5114926;28;20213;-54
2023/01/27 08:54:36;;;;;;;7.72;5.50;;;;;;;;;;5114553;28;20195;-58
2023/01/27 08:57:03;;;;;;;7.85;5.40;;;;;;;;;;5114689;28;20193;-55
2023/01/27 08:59:30;;;;;;;6.35;5.18;;;;;;;;;;5114526;28;20671;-57
2023/01/27 09:01:57;;;;;;;9.30;6.03;;;;;;;;;;5114451;28;20184;-57
2023/01/27 09:04:24;;;;;;;7.05;5.72;;;;;;;;;;5114247;28;20190;-56
2023/01/27 09:06:52;;;;;;;6.88;5.65;;;;;;;;;;5114377;28;20189;-55
2023/01/27 09:09:19;;;;;;;7.68;5.40;;;;;;;;;;5114139;28;20641;-58
2023/01/27 09:11:48;;;;;;;6.03;5.30;;;;;;;;;;5114247;28;20211;-57
2023/01/27 09:14:15;;;;;;;6.55;5.45;;;;;;;;;;5114035;28;20280;-58
2023/01/27 09:16:42;;;;;;;9.55;6.32;;;;;;;;;;5113954;28;20662;-58
2023/01/27 09:19:09;;;;;;;6.47;4.82;;;;;;;;;;5114300;28;20201;-58
2023/01/27 09:21:36;;;;;;;6.43;5.13;;;;;;;;;;5114267;28;20620;-58
2023/01/27 09:24:03;;;;;;;6.38;5.10;;;;;;;;;;5114320;28;20296;-60
2023/01/27 09:26:30;;;;;;;5.82;5.05;;;;;;;;;;5113828;28;20194;-61
2023/01/27 09:28:58;;;;;;;4.93;4.50;;;;;;;;;;5114043;28;20185;-61
2023/01/27 09:31:25;;;;;;;5.15;4.53;;;;;;;;;;5113814;28;20196;-62
2023/01/27 09:33:52;;;;;;;5.22;4.68;;;;;;;;;;5113907;28;20241;-61
2023/01/27 09:36:20;;;;;;;4.30;3.90;;;;;;;;;;5113939;28;20185;-62
2023/01/27 09:38:51;;;;;;;4.40;4.00;;;;;;;;;;5114034;28;20617;-60
2023/01/27 09:41:29;;;;;;;4.50;4.10;;;;;;;;;;5113532;28;20648;-61
2023/01/27 09:44:10;;;;;;;4.80;4.32;;;;;;;;;;5113633;28;20193;-60
2023/01/27 09:46:42;;;;;;;4.40;3.88;;;;;;;;;;5113541;28;20304;-60
2023/01/27 09:49:22;;;;;;;4.82;4.35;;;;;;;;;;5113426;28;20657;-61
2023/01/27 09:51:53;;;;;;;6.57;4.20;;;;;;;;;;5113592;28;20573;-61
2023/01/27 09:54:35;;;;;;;4.47;4.07;;;;;;;;;;5113392;28;20360;-59
2023/01/27 09:57:08;;;;;;;4.30;3.90;;;;;;;;;;5113558;28;20197;-61
2023/01/27 09:59:46;;;;;;;4.00;3.60;;;;;;;;;;5113656;28;20194;-60
2023/01/27 10:02:19;;;;;;;4.20;3.78;;;;;;;;;;5113577;28;20277;-60
2023/01/27 10:05:00;;;;;;;6.03;4.05;;;;;;;;;;5113104;28;20197;-61
2023/01/27 10:07:42;;;;;;;4.40;3.80;;;;;;;;;;5096514;28;20656;-60
2023/01/27 10:10:18;;;;;;;3.55;3.35;;;;;;;;;;5110079;28;20215;-60
2023/01/27 10:12:51;;;;;;;5.35;3.90;;;;;;;;;;5113243;28;20242;-61
2023/01/27 10:15:31;;;;;;;4.05;3.75;;;;;;;;;;5112592;28;20645;-58
2023/01/27 10:18:01;;;;;;;4.07;3.75;;;;;;;;;;5113234;28;20204;-63
2023/01/27 10:20:30;;;;;;;3.90;3.60;;;;;;;;;;5112971;28;20240;-63
2023/01/27 10:23:03;;;;;;;3.88;3.47;;;;;;;;;;5113119;28;20717;-62
2023/01/27 10:25:36;;;;;;;3.67;3.38;;;;;;;;;;5113095;28;20190;-59
2023/01/27 10:28:08;;;;;;;3.75;3.45;;;;;;;;;;5113115;28;20283;-60
2023/01/27 10:30:38;;;;;;;5.30;4.05;;;;;;;;;;5113187;28;20231;-59
2023/01/27 10:33:08;;;;;;;4.05;3.78;;;;;;;;;;5113213;28;20216;-62
2023/01/27 10:35:38;;;;;;;4.35;3.70;;;;;;;;;;5113520;28;20193;-59
2023/01/27 10:38:10;;;;;;;4.82;3.13;;;;;;;;;;5113197;28;20271;-60
2023/01/27 10:40:40;;;;;;;3.80;3.50;;;;;;;;;;5113027;28;20764;-61
2023/01/27 10:43:11;;;;;;;4.05;3.67;;;;;;;;;;5112776;28;20190;-59
2023/01/27 10:45:42;;;;;;;3.45;3.15;;;;;;;;;;5112691;28;20637;-60
2023/01/27 10:48:19;;;;;;;5.00;2.70;;;;;;;;;;5113940;28;20194;-63
2023/01/27 10:50:48;;;;;;;2.90;2.70;;;;;;;;;;5117010;28;20639;-65
2023/01/27 10:53:17;;;;;;;3.08;2.72;;;;;;;;;;5117096;28;20225;-66
2023/01/27 10:55:47;;;;;;;4.55;2.95;;;;;;;;;;5116507;28;20661;-64
2023/01/27 10:58:19;;;;;;;3.88;2.70;;;;;;;;;;5116731;28;20501;-66
2023/01/27 11:00:49;;;;;;;2.95;2.72;;;;;;;;;;5116578;28;20190;-61
2023/01/27 11:03:22;;;;;;;3.10;2.90;;;;;;;;;;5116738;28;20190;-61
2023/01/27 11:05:50;;;;;;;4.68;2.83;;;;;;;;;;5116775;28;20193;-62
2023/01/27 11:14:50;;;;;;;3.25;2.95;;;;;;;;;;5116729;28;20216;-60
2023/01/27 11:20:30;;;;;;;2.45;1.95;;;;;;;;;;5116453;28;20226;-61
2023/01/27 11:22:59;;;;;;;3.35;2.22;;;;;;;;;;5116386;28;20524;-62
2023/01/27 11:25:28;;;;;;;2.00;1.90;;;;;;;;;;5116402;28;20185;-62
2023/01/27 11:28:01;;;;;;;2.40;2.20;;;;;;;;;;5116365;28;20186;-62
2023/01/27 11:30:32;;;;;;;2.60;2.40;;;;;;;;;;5116302;28;20196;-62
2023/01/27 11:33:02;;;;;;;2.00;1.80;;;;;;;;;;5115739;28;20224;-62
2023/01/27 11:35:30;;;;;;;2.92;2.28;;;;;;;;;;5115966;28;20277;-69
2023/01/27 11:37:57;;;;;;;3.65;2.50;;;;;;;;;;5116106;28;20194;-63
2023/01/27 11:40:27;;;;;;;2.75;2.55;;;;;;;;;;5116036;28;20648;-61
2023/01/27 11:42:56;;;;;;;2.38;2.28;;;;;;;;;;5115665;28;20194;-62
2023/01/27 11:45:24;;;;;;;3.45;2.65;;;;;;;;;;5115633;28;20653;-61
2023/01/27 11:47:53;;;;;;;2.60;2.40;;;;;;;;;;5115447;28;20192;-61
2023/01/27 11:50:22;;;;;;;2.83;2.15;;;;;;;;;;5115974;28;20276;-62
2023/01/27 11:52:52;;;;;;;2.63;2.42;;;;;;;;;;5115781;28;20221;-61
2023/01/27 11:55:21;;;;;;;3.28;2.40;;;;;;;;;;5115088;28;20196;-60
2023/01/27 11:57:51;;;;;;;7.07;3.50;;;;;;;;;;5114903;28;20534;-61
2023/01/27 12:00:22;;;;;;;2.90;2.65;;;;;;;;;;5114172;28;20190;-61
2023/01/27 12:02:54;;;;;;;2.22;2.03;;;;;;;;;;5115680;28;20201;-61
2023/01/27 12:05:22;;;;;;;2.28;2.08;;;;;;;;;;5115756;28;20190;-61
2023/01/27 12:07:52;;;;;;;4.13;2.47;;;;;;;;;;5115796;28;20237;-61
2023/01/27 12:10:24;;;;;;;2.65;2.45;;;;;;;;;;5115570;28;20201;-61
2023/01/27 12:12:51;;;;;;;5.35;3.00;;;;;;;;;;5115418;28;20216;-61
2023/01/27 12:15:18;;;;;;;6.18;2.83;;;;;;;;;;5115593;28;20190;-62
2023/01/27 12:17:47;;;;;;;2.58;2.28;;;;;;;;;;5115490;28;20627;-61
2023/01/27 12:20:24;;;;;;;2.78;2.38;;;;;;;;;;5115427;28;20193;-61
2023/01/27 12:22:53;;;;;;;3.15;1.95;;;;;;;;;;5115272;28;20280;-61
2023/01/27 12:25:23;;;;;;;9.27;4.78;;;;;;;;;;5115099;28;20228;-61
2023/01/27 12:27:52;;;;;;;3.10;2.50;;;;;;;;;;5115216;28;20261;-61
2023/01/27 12:30:21;;;;;;;12.50;3.10;;;;;;;;;;5115398;28;20192;-61
2023/01/27 12:32:49;;;;;;;3.10;2.20;;;;;;;;;;5114871;28;20453;-61
2023/01/27 12:35:21;;;;;;;2.90;2.20;;;;;;;;;;5114990;28;20271;-61
2023/01/27 12:37:49;;;;;;;9.10;3.28;;;;;;;;;;5114917;28;20277;-61
2023/01/27 12:40:19;;;;;;;4.78;2.65;;;;;;;;;;5115153;28;20189;-61
2023/01/27 12:42:50;;;;;;;4.15;2.40;;;;;;;;;;5115028;28;20590;-61
2023/01/27 12:45:18;;;;;;;3.85;1.90;;;;;;;;;;5114604;28;20218;-61
2023/01/27 12:47:56;;;;;;;2.60;2.38;;;;;;;;;;5114741;28;20217;-61
2023/01/27 12:50:23;;;;;;;6.90;3.38;;;;;;;;;;5114727;28;20281;-61
2023/01/27 12:52:55;;;;;;;3.33;2.63;;;;;;;;;;5114420;28;20645;-61
2023/01/27 12:55:30;;;;;;;9.60;3.35;;;;;;;;;;5114724;28;20193;-61
2023/01/27 12:57:57;;;;;;;3.80;2.70;;;;;;;;;;5114383;28;20221;-61
2023/01/27 13:00:25;;;;;;;2.78;2.40;;;;;;;;;;5114513;28;20198;-61
2023/01/27 13:02:53;;;;;;;4.85;2.75;;;;;;;;;;5114233;28;20197;-61
2023/01/27 13:05:20;;;;;;;5.75;2.85;;;;;;;;;;5114527;28;20185;-62
2023/01/27 13:07:48;;;;;;;2.30;2.10;;;;;;;;;;5114361;28;20190;-61
2023/01/27 13:10:19;;;;;;;5.43;2.22;;;;;;;;;;5114401;28;20623;-61
2023/01/27 13:12:50;;;;;;;4.20;2.30;;;;;;;;;;5113933;28;20286;-61
2023/01/27 13:15:18;;;;;;;2.63;2.03;;;;;;;;;;5114167;28;20644;-61
2023/01/27 13:17:47;;;;;;;2.35;2.15;;;;;;;;;;5114208;28;20193;-61
2023/01/27 13:20:16;;;;;;;2.90;2.70;;;;;;;;;;5114223;28;20239;-61
2023/01/27 13:22:45;;;;;;;7.78;2.30;;;;;;;;;;5114064;28;20229;-61
2023/01/27 13:25:16;;;;;;;3.00;2.80;;;;;;;;;;5114302;28;20217;-61
2023/01/27 13:27:44;;;;;;;3.42;2.22;;;;;;;;;;5113968;28;20212;-61
2023/01/27 13:30:16;;;;;;;3.58;2.20;;;;;;;;;;5114026;28;20194;-61
2023/01/27 13:32:46;;;;;;;5.80;2.70;;;;;;;;;;5114028;28;20193;-61
2023/01/27 13:35:17;;;;;;;3.70;2.17;;;;;;;;;;5114122;28;20759;-60
2023/01/27 13:37:47;;;;;;;3.03;2.03;;;;;;;;;;5113898;28;20199;-60
2023/01/27 13:40:17;;;;;;;5.05;2.30;;;;;;;;;;5113684;28;20190;-60
2023/01/27 13:42:47;;;;;;;4.55;2.22;;;;;;;;;;5113881;28;20191;-60
2023/01/27 13:45:17;;;;;;;4.35;2.65;;;;;;;;;;5113767;28;20226;-60
2023/01/27 13:47:49;;;;;;;3.67;2.28;;;;;;;;;;5113630;28;20277;-59
2023/01/27 13:50:22;;;;;;;2.78;2.20;;;;;;;;;;5113649;28;20217;-60
2023/01/27 13:52:51;;;;;;;4.65;2.80;;;;;;;;;;5113378;28;20197;-61
2023/01/27 13:55:21;;;;;;;5.15;3.15;;;;;;;;;;5113604;28;20222;-61
2023/01/27 13:57:55;;;;;;;4.25;2.35;;;;;;;;;;5113563;28;20193;-61
2023/01/27 14:00:26;;;;;;;4.10;2.85;;;;;;;;;;5113508;28;20300;-61
2023/01/27 14:03:17;;;;;;;4.70;2.30;;;;;;;;;;5113457;28;20194;-59
2023/01/27 14:05:50;;;;;;;2.58;2.22;;;;;;;;;;5113502;28;20614;-62
2023/01/27 14:08:24;;;;;;;2.30;2.10;;;;;;;;;;5113366;28;20197;-60
2023/01/27 14:11:00;;;;;;;2.80;2.50;;;;;;;;;;5113271;28;20196;-59
2023/01/27 14:13:31;;;;;;;3.33;3.10;;;;;;;;;;5113128;28;20284;-62
2023/01/27 14:16:04;;;;;;;10.27;2.72;;;;;;;;;;5113360;28;20190;-61
2023/01/27 14:18:34;;;;;;;5.28;2.90;;;;;;;;;;5113360;28;20650;-61
2023/01/27 14:21:13;;;;;;;4.05;2.60;;;;;;;;;;5113637;28;20191;-61
2023/01/27 14:23:45;;;;;;;3.17;2.65;;;;;;;;;;5112445;28;20284;-60
2023/01/27 14:26:17;;;;;;;8.57;2.85;;;;;;;;;;5113161;28;20190;-62
2023/01/27 14:28:52;;;;;;;4.10;3.30;;;;;;;;;;5113364;28;20224;-61
2023/01/27 14:31:23;;;;;;;5.95;3.75;;;;;;;;;;5113224;28;20276;-60
2023/01/27 14:33:54;;;;;;;4.32;3.00;;;;;;;;;;5112876;28;20244;-62
2023/01/27 14:36:22;;;;;;;6.50;3.55;;;;;;;;;;5113015;28;20190;-61
2023/01/27 14:38:54;;;;;;;9.88;3.13;;;;;;;;;;5112925;28;20212;-61
2023/01/27 14:41:26;;;;;;;4.22;3.80;;;;;;;;;;5113200;28;20551;-61
2023/01/27 14:43:56;;;;;;;3.55;2.97;;;;;;;;;;5113017;28;20198;-61
2023/01/27 14:46:40;;;;;;;6.13;3.67;;;;;;;;;;5112851;28;20227;-61
2023/01/27 14:49:11;;;;;;;3.60;2.83;;;;;;;;;;5112871;28;20277;-61
2023/01/27 14:51:40;;;;;;;5.72;3.28;;;;;;;;;;5113105;28;20232;-61
2023/01/27 14:54:17;;;;;;;6.93;3.20;;;;;;;;;;5112883;28;20232;-61
2023/01/27 14:56:46;;;;;;;5.38;3.30;;;;;;;;;;5112772;28;20671;-61
2023/01/27 14:59:18;;;;;;;6.65;3.08;;;;;;;;;;5112828;28;20199;-61
2023/01/27 15:01:52;;;;;;;9.18;3.17;;;;;;;;;;5112719;28;20220;-61
2023/01/27 15:04:27;;;;;;;5.43;2.90;;;;;;;;;;5112942;28;20288;-61
2023/01/27 15:06:56;;;;;;;3.75;2.80;;;;;;;;;;5113160;28;20193;-61
2023/01/27 15:09:41;;;;;;;4.10;3.22;;;;;;;;;;5112770;28;20255;-61
2023/01/27 15:12:23;;;;;;;3.78;2.80;;;;;;;;;;5112572;28;20276;-61
2023/01/27 15:14:58;;;;;;;3.55;2.72;;;;;;;;;;5068295;28;20214;-61
2023/01/27 15:17:32;;;;;;;7.82;3.88;;;;;;;;;;5112674;28;20238;-61
2023/01/27 15:20:13;;;;;;;4.07;3.67;;;;;;;;;;5112729;28;20199;-61
2023/01/27 15:22:44;;;;;;;3.95;2.80;;;;;;;;;;5113283;28;20237;-61
2023/01/27 15:25:28;;;;;;;8.90;3.70;;;;;;;;;;5113150;28;20194;-61
2023/01/27 15:27:55;;;;;;;5.50;3.42;;;;;;;;;;5112744;28;20719;-61
2023/01/27 15:30:23;;;;;;;3.30;2.85;;;;;;;;;;5112630;28;20200;-61
2023/01/27 15:32:51;;;;;;;3.22;2.50;;;;;;;;;;5112486;28;20594;-61